Poolville, TX (76487)

6:28 PM CDT on April 21, 2015 (GMT -0500)
CrazyAT Cattle Co | | Change Station
CLOSE
Current Station
Personal Weather Station
Location: Springtown, TX
Elevation: 942 ft
Nearby Weather Stations

Elev 942 ft 33.02 °N, 97.74 °W | Updated 5 minutes ago

Partly Cloudy
Partly Cloudy
75.4 °F
Feels Like 78 °F
N
4.2
Wind Variable Wind from SSW

Today
High -- | Low -- °F
--% Chance of Precip.
Yesterday
High -- | Low -- °F
Precip. -- in
6:54 AM 8:06 PM
Waxing Crescent, 13% visible
Pressure 29.88 in
Visibility 10.0 miles
Clouds Clear
Heat Index 78 °F
Dew Point 56 °F
Humidity 51%
Rainfall 0.00 in
Snow Depth Not available.
UV 2 out of 12
Pollen 8.00 out of 12
Air Quality Not available.
Flu Activity Local Activity
METAR KXBP 212315Z AUTO 15007KT 10SM CLR 24/13 A2988 RMK AO2 LTG DSNT E T02350134

More Conditions Fewer Conditions

Pressure 29.88 in
Visibility 10.0 miles
Clouds Clear
Heat Index 78 °F
Dew Point 56 °F
Humidity 51%
Rainfall 0.00 in
Snow Depth Not available.
UV 2 out of 12
Pollen 8.00 out of 12
Air Quality Not available.
Flu Activity Local Activity
METAR KXBP 212315Z AUTO 15007KT 10SM CLR 24/13 A2988 RMK AO2 LTG DSNT E T02350134

More Conditions Fewer Conditions

Nowcast | as of 4:21 PM CDT on April 21, 2015

Showers and thunderstorms east of a Paris to Greenville to Emory line will continue to move east at 30 mph. Brief heavy rain and cloud to ground lightning will accompany some of these storms through 7 PM.

×

10-Day Weather Forecast

Almanac

Astronomy

Apr. 21, 2015 Rise Set
Actual Time
Civil Twilight
Nautical Twilight
Astronomical Twilight
Moon
Length of Visible Light
Length of Day
Tomorrow will be .
, % of the Moon is Illuminated

Today's Extremes

State Highs State Lows

Community

WunderPhotos

Upload Photos

1,815,579 photos uploaded!

WunderBlogs® & News

Nearby

Air Quality

  Air Quality AQ Index Pollutant
Not available.

Snow Depth

Station Depth Elevation

Earthquake Activity

City Distance Mag. Time & Date
Minimum magnitude displayed is 2.5.

Coastal Water Temperatures

Place Temperature

Stations

Nearby Weather Stations

Station Location Temp. Windchill Dew Point Humidity Wind Precip. Elev Updated Type